createdAt,value
2023-04-14T00:01:22.746Z,3.40
2023-04-14T00:03:51.842Z,4.95
2023-04-14T00:06:20.771Z,4.40
2023-04-14T00:08:48.264Z,2.83
2023-04-14T00:11:15.754Z,4.47
2023-04-14T00:13:43.264Z,2.08
2023-04-14T00:16:11.562Z,2.50
2023-04-14T00:18:39.035Z,5.78
2023-04-14T00:21:06.636Z,3.40
2023-04-14T00:23:35.459Z,4.00
2023-04-14T00:30:57.759Z,3.45
2023-04-14T00:33:25.241Z,3.08
2023-04-14T00:35:53.013Z,3.00
2023-04-14T00:38:21.837Z,2.67
2023-04-14T00:40:50.618Z,2.60
2023-04-14T00:45:48.467Z,3.15
2023-04-14T00:48:17.664Z,1.90
2023-04-14T00:50:46.058Z,2.95
2023-04-14T00:53:14.287Z,2.53
2023-04-14T00:55:42.696Z,3.13
2023-04-14T00:58:11.987Z,1.90
2023-04-14T01:00:39.593Z,2.15
2023-04-14T01:03:07.463Z,1.92
2023-04-14T01:05:35.533Z,2.80
2023-04-14T01:08:04.228Z,2.30
2023-04-14T01:10:38.835Z,3.47
2023-04-14T01:13:17.115Z,1.95
2023-04-14T01:15:53.416Z,2.03
2023-04-14T01:18:30.309Z,1.98
2023-04-14T01:21:04.130Z,3.83
2023-04-14T01:23:36.816Z,1.98
2023-04-14T01:26:20.658Z,2.80
2023-04-14T01:29:26.195Z,2.50
2023-04-14T01:32:02.733Z,2.67
2023-04-14T01:34:34.730Z,2.58
2023-04-14T01:37:06.286Z,4.40
2023-04-14T01:39:37.356Z,2.45
2023-04-14T01:42:09.967Z,2.65
2023-04-14T01:44:42.201Z,1.92
2023-04-14T01:47:16.347Z,3.47
2023-04-14T01:49:46.088Z,4.88
2023-04-14T01:52:16.800Z,2.90
2023-04-14T01:54:45.790Z,2.85
2023-04-14T01:57:19.231Z,2.65
2023-04-14T01:59:48.606Z,2.85
2023-04-14T02:02:19.429Z,3.47
2023-04-14T02:04:48.528Z,2.58
2023-04-14T02:07:17.503Z,3.30
2023-04-14T02:09:46.528Z,2.92
2023-04-14T02:12:14.231Z,4.25
2023-04-14T02:14:43.251Z,2.83
2023-04-14T02:17:12.572Z,2.25
2023-04-14T02:19:45.072Z,2.70
2023-04-14T02:22:12.810Z,2.20
2023-04-14T02:24:40.654Z,2.75
2023-04-14T02:27:11.151Z,2.10
2023-04-14T02:29:45.489Z,5.15
2023-04-14T02:32:22.326Z,2.53
2023-04-14T02:34:55.131Z,3.60
2023-04-14T02:37:26.303Z,2.97
2023-04-14T02:39:59.868Z,3.05
2023-04-14T02:42:29.519Z,2.08
2023-04-14T02:45:01.188Z,4.28
2023-04-14T02:47:35.862Z,2.28
2023-04-14T02:50:08.275Z,3.08
2023-04-14T02:52:36.640Z,3.25
2023-04-14T02:55:06.165Z,3.65
2023-04-14T02:57:34.436Z,3.42
2023-04-14T03:00:06.028Z,2.40
2023-04-14T03:02:35.134Z,3.83
2023-04-14T03:05:05.267Z,2.03
2023-04-14T03:07:34.166Z,2.78
2023-04-14T03:10:02.887Z,3.97
2023-04-14T03:12:31.475Z,3.83
2023-04-14T03:15:00.425Z,6.00
2023-04-14T03:17:28.738Z,4.38
2023-04-14T03:19:57.261Z,4.18
2023-04-14T03:22:28.080Z,4.25
2023-04-14T03:24:58.737Z,3.50
2023-04-14T03:27:30.242Z,3.13
2023-04-14T03:30:03.124Z,3.75
2023-04-14T03:32:35.780Z,3.00
2023-04-14T03:35:04.788Z,2.92
2023-04-14T03:37:37.661Z,2.97
2023-04-14T03:40:08.816Z,4.43
2023-04-14T03:42:39.356Z,2.60
2023-04-14T03:45:07.952Z,3.65
2023-04-14T03:47:35.896Z,3.90
2023-04-14T03:50:05.872Z,6.25
2023-04-14T03:52:36.977Z,2.97
2023-04-14T03:55:07.163Z,3.20
2023-04-14T03:57:37.242Z,4.20
2023-04-14T04:00:08.871Z,3.78
2023-04-14T04:02:37.503Z,3.65
2023-04-14T04:05:07.310Z,3.65
2023-04-14T04:07:37.070Z,4.50
2023-04-14T04:10:06.153Z,4.30
2023-04-14T04:12:35.191Z,4.70
2023-04-14T04:15:02.814Z,4.03
2023-04-14T04:17:33.429Z,6.07
2023-04-14T04:20:04.406Z,4.45
2023-04-14T04:22:38.827Z,5.05
2023-04-14T04:25:07.805Z,2.95
2023-04-14T04:27:35.719Z,2.50
2023-04-14T04:30:04.879Z,5.63
2023-04-14T04:32:32.471Z,4.68
2023-04-14T04:35:00.918Z,5.15
2023-04-14T04:37:29.033Z,3.92
2023-04-14T04:39:59.046Z,4.45
2023-04-14T04:42:26.581Z,3.88
2023-04-14T04:44:54.035Z,6.40
2023-04-14T04:47:21.648Z,5.90
2023-04-14T04:49:49.106Z,5.75
2023-04-14T04:52:16.902Z,5.90
2023-04-14T04:54:45.346Z,3.33
2023-04-14T04:57:14.350Z,6.25
2023-04-14T04:59:41.803Z,7.88
2023-04-14T05:02:09.299Z,6.68
2023-04-14T05:17:59.553Z,3.97
2023-04-14T05:20:55.859Z,5.35
2023-04-14T05:27:14.205Z,6.07
2023-04-14T05:29:42.372Z,14.32
2023-04-14T05:32:10.605Z,14.25
2023-04-14T05:34:38.318Z,11.73
2023-04-14T05:37:05.994Z,8.50
2023-04-14T05:39:51.449Z,8.68
2023-04-14T05:42:20.211Z,8.55
2023-04-14T05:44:47.669Z,6.75
2023-04-14T05:47:15.553Z,7.45
2023-04-14T05:49:48.831Z,5.32
2023-04-14T05:52:16.346Z,7.25
2023-04-14T05:54:43.908Z,6.22
2023-04-14T05:57:17.298Z,7.15
2023-04-14T05:59:48.066Z,8.45
2023-04-14T06:02:15.837Z,6.55
2023-04-14T06:04:43.801Z,6.55
2023-04-14T06:07:11.384Z,10.20
2023-04-14T06:09:46.328Z,4.72
2023-04-14T06:12:14.045Z,7.75
2023-04-14T06:14:41.505Z,9.18
2023-04-14T06:17:10.348Z,7.22
2023-04-14T06:19:39.391Z,7.53
2023-04-14T06:22:11.229Z,8.32
2023-04-14T06:24:40.660Z,8.48
2023-04-14T06:27:09.227Z,9.18
2023-04-14T06:29:36.721Z,11.35
2023-04-14T06:32:23.973Z,9.95
2023-04-14T06:37:25.609Z,7.43
2023-04-14T06:42:50.962Z,5.65
2023-04-14T06:45:23.987Z,4.72
2023-04-14T06:47:53.032Z,8.10
2023-04-14T06:50:20.576Z,5.78
2023-04-14T06:52:48.024Z,5.57
2023-04-14T06:55:18.493Z,6.07
2023-04-14T06:57:45.988Z,6.05
2023-04-14T07:00:16.357Z,7.00
2023-04-14T07:02:43.889Z,7.97
2023-04-14T07:05:13.787Z,8.60
2023-04-14T07:10:28.679Z,7.50
2023-04-14T07:12:56.131Z,9.02
2023-04-14T07:15:23.635Z,7.20
2023-04-14T07:17:51.540Z,9.73
2023-04-14T07:20:20.491Z,7.20
2023-04-14T07:28:02.512Z,5.32
2023-04-14T07:30:31.533Z,4.05
2023-04-14T07:32:59.137Z,6.20
2023-04-14T07:35:54.425Z,5.80
2023-04-14T07:38:28.690Z,6.63
2023-04-14T07:41:02.029Z,8.65
2023-04-14T07:43:34.650Z,7.65
2023-04-14T07:46:04.287Z,6.15
2023-04-14T07:48:40.094Z,5.80
2023-04-14T07:51:08.982Z,5.40
2023-04-14T07:56:32.060Z,6.68
2023-04-14T07:58:59.869Z,5.90
2023-04-14T08:01:33.840Z,5.82
2023-04-14T08:04:11.642Z,5.45
2023-04-14T08:07:05.414Z,5.68
2023-04-14T08:09:48.700Z,6.28
2023-04-14T08:12:38.576Z,4.28
2023-04-14T08:15:06.800Z,4.80
2023-04-14T08:17:34.313Z,4.05
2023-04-14T08:20:01.837Z,4.85
2023-04-14T08:22:30.748Z,5.05
2023-04-14T08:24:58.228Z,4.88
2023-04-14T08:27:25.709Z,5.57
2023-04-14T08:29:54.044Z,4.57
2023-04-14T08:32:24.918Z,8.00
2023-04-14T08:35:39.582Z,10.68
2023-04-14T08:37:45.048Z,4.03
2023-04-14T08:42:40.513Z,3.30
2023-04-14T08:45:37.696Z,4.93
2023-04-14T08:48:22.485Z,3.70
2023-04-14T08:51:10.544Z,3.20
2023-04-14T08:53:45.037Z,3.80
2023-04-14T08:56:16.272Z,3.40
2023-04-14T08:58:44.066Z,6.15
2023-04-14T09:01:12.047Z,5.07
2023-04-14T09:03:40.780Z,3.65
2023-04-14T09:06:08.702Z,3.90
2023-04-14T09:08:37.199Z,5.40
2023-04-14T09:11:06.205Z,5.65
2023-04-14T09:13:34.110Z,3.83
2023-04-14T09:16:02.343Z,3.28
2023-04-14T09:18:31.262Z,3.45
2023-04-14T09:21:50.569Z,3.88
2023-04-14T09:23:49.569Z,5.10
2023-04-14T09:26:18.692Z,5.00
2023-04-14T09:29:00.820Z,5.05
2023-04-14T09:31:28.589Z,9.43
2023-04-14T09:33:56.736Z,7.40
2023-04-14T09:36:26.145Z,5.18
2023-04-14T09:39:20.763Z,5.07
2023-04-14T09:41:52.448Z,4.57
2023-04-14T09:44:20.308Z,6.05
2023-04-14T09:46:57.832Z,5.88
2023-04-14T09:49:25.490Z,3.97
2023-04-14T09:51:54.432Z,5.68
2023-04-14T09:54:26.321Z,6.05
2023-04-14T09:56:57.822Z,3.10
2023-04-14T09:59:35.004Z,6.15
2023-04-14T10:02:07.422Z,4.90
2023-04-14T10:04:35.588Z,5.97
2023-04-14T10:07:03.340Z,5.63
2023-04-14T10:09:31.205Z,5.28
2023-04-14T10:12:10.866Z,2.13
2023-04-14T10:14:50.160Z,4.95
2023-04-14T10:17:26.250Z,4.22
2023-04-14T10:19:55.394Z,5.00
2023-04-14T10:22:23.632Z,3.50
2023-04-14T10:24:52.775Z,6.07
2023-04-14T10:27:22.229Z,6.75
2023-04-14T10:30:01.569Z,3.53
2023-04-14T10:32:37.375Z,5.40
2023-04-14T10:35:07.347Z,6.50
2023-04-14T10:37:59.198Z,3.80
2023-04-14T10:40:26.940Z,4.03
2023-04-14T10:42:57.184Z,3.83
2023-04-14T10:45:25.156Z,5.00
2023-04-14T10:47:53.102Z,3.40
2023-04-14T10:50:24.944Z,2.95
2023-04-14T10:52:55.879Z,3.83
2023-04-14T10:55:24.648Z,4.32
2023-04-14T10:57:54.352Z,1.85
2023-04-14T11:00:26.156Z,2.67
2023-04-14T11:02:59.006Z,2.67
2023-04-14T11:05:33.474Z,3.95
2023-04-14T11:08:27.061Z,4.57
2023-04-14T11:11:03.130Z,4.97
2023-04-14T11:13:31.233Z,2.95
2023-04-14T11:16:04.688Z,4.07
2023-04-14T11:21:05.480Z,4.43
2023-04-14T11:23:33.945Z,3.85
2023-04-14T11:26:01.881Z,4.47
2023-04-14T11:28:30.633Z,4.00
2023-04-14T11:31:01.161Z,5.63
2023-04-14T11:33:33.693Z,2.97
2023-04-14T11:36:03.506Z,5.32
2023-04-14T11:38:40.412Z,3.97
2023-04-14T11:41:28.538Z,3.35
2023-04-14T11:44:04.434Z,6.22
2023-04-14T11:46:33.705Z,4.13
2023-04-14T11:49:01.624Z,2.83
2023-04-14T11:51:32.177Z,4.53
2023-04-14T11:54:00.731Z,3.38
2023-04-14T11:56:37.760Z,1.75
2023-04-14T11:59:06.378Z,4.97
2023-04-14T12:01:38.598Z,4.20
2023-04-14T12:04:06.637Z,4.95
2023-04-14T12:06:37.031Z,4.75
2023-04-14T12:10:03.735Z,4.25
2023-04-14T12:12:12.894Z,3.55
2023-04-14T12:14:45.891Z,2.20
2023-04-14T12:17:16.218Z,2.95
2023-04-14T12:19:44.386Z,3.83
2023-04-14T12:22:12.011Z,2.28
2023-04-14T12:24:41.748Z,2.13
2023-04-14T12:27:10.476Z,4.60
2023-04-14T12:29:38.066Z,3.25
2023-04-14T12:32:11.863Z,5.00
2023-04-14T12:34:40.861Z,4.72
2023-04-14T12:37:17.240Z,1.85
2023-04-14T12:39:52.051Z,2.88
2023-04-14T12:42:19.884Z,3.10
2023-04-14T12:45:06.344Z,7.63
2023-04-14T12:47:35.301Z,2.85
2023-04-14T12:50:29.047Z,6.13
2023-04-14T12:53:24.432Z,7.68
2023-04-14T12:56:06.933Z,5.68
2023-04-14T12:58:34.685Z,6.40
2023-04-14T13:01:02.337Z,3.22
2023-04-14T13:03:50.298Z,4.05
2023-04-14T13:06:20.926Z,3.72
2023-04-14T13:08:58.334Z,2.13
2023-04-14T13:11:26.339Z,2.63
2023-04-14T13:13:59.817Z,1.13
2023-04-14T13:16:27.729Z,4.18
2023-04-14T13:18:55.538Z,1.95
2023-04-14T13:21:24.545Z,3.75
2023-04-14T13:23:52.148Z,5.13
2023-04-14T13:26:19.822Z,5.38
2023-04-14T13:28:49.773Z,2.97
2023-04-14T13:31:18.049Z,2.88
2023-04-14T13:33:45.781Z,2.05
2023-04-14T13:36:13.356Z,1.50
2023-04-14T13:38:42.352Z,1.30
2023-04-14T13:41:10.019Z,2.88
2023-04-14T13:43:37.816Z,2.70
2023-04-14T13:46:05.740Z,3.28
2023-04-14T13:48:33.753Z,1.80
2023-04-14T13:51:01.776Z,2.75
2023-04-14T13:53:29.527Z,2.97
2023-04-14T13:55:58.456Z,1.45
2023-04-14T13:58:26.245Z,2.92
2023-04-14T14:00:55.304Z,2.88
2023-04-14T14:03:25.747Z,2.22
2023-04-14T14:05:54.071Z,2.00
2023-04-14T14:08:22.952Z,1.50
2023-04-14T14:10:50.511Z,2.30
2023-04-14T14:13:20.427Z,3.15
2023-04-14T14:15:48.669Z,1.63
2023-04-14T14:18:16.556Z,1.13
2023-04-14T14:20:44.150Z,1.00
2023-04-14T14:23:13.014Z,2.88
2023-04-14T14:25:41.135Z,2.88
2023-04-14T14:28:08.973Z,2.70
2023-04-14T14:30:39.891Z,2.50
2023-04-14T14:33:10.517Z,2.15
2023-04-14T14:35:45.581Z,2.78
2023-04-14T14:38:13.097Z,2.08
2023-04-14T14:40:40.742Z,2.53
2023-04-14T14:43:08.543Z,3.35
2023-04-14T14:45:36.458Z,4.20
2023-04-14T14:48:06.329Z,1.50
2023-04-14T14:50:33.924Z,1.70
2023-04-14T14:53:01.572Z,1.40
2023-04-14T14:55:29.017Z,1.52
2023-04-14T14:57:56.476Z,2.63
2023-04-14T15:00:30.250Z,2.35
2023-04-14T15:02:58.058Z,3.42
2023-04-14T15:05:27.028Z,2.72
2023-04-14T15:07:54.498Z,3.15
2023-04-14T15:10:22.059Z,3.05
2023-04-14T15:12:49.516Z,2.53
2023-04-14T15:15:18.965Z,5.50
2023-04-14T15:17:46.694Z,4.03
2023-04-14T15:20:14.355Z,3.25
2023-04-14T15:22:43.210Z,2.22
2023-04-14T15:25:11.066Z,3.28
2023-04-14T15:27:38.592Z,3.65
2023-04-14T15:30:07.444Z,5.05
2023-04-14T15:32:34.984Z,3.58
2023-04-14T15:35:02.571Z,4.07
2023-04-14T15:37:30.098Z,6.05
2023-04-14T15:39:59.219Z,4.68
2023-04-14T15:42:26.704Z,3.42
2023-04-14T15:44:54.201Z,5.65
2023-04-14T15:47:21.687Z,3.72
2023-04-14T15:49:52.411Z,4.18
2023-04-14T15:52:37.258Z,4.60
2023-04-14T15:55:07.211Z,6.80
2023-04-14T15:57:34.715Z,4.15
2023-04-14T16:00:04.491Z,5.80
2023-04-14T16:02:35.456Z,3.00
2023-04-14T16:05:04.862Z,3.72
2023-04-14T16:07:33.261Z,5.32
2023-04-14T16:10:01.358Z,4.68
2023-04-14T16:12:30.178Z,5.78
2023-04-14T16:14:57.664Z,3.05
2023-04-14T16:17:25.519Z,4.75
2023-04-14T16:19:53.084Z,6.55
2023-04-14T16:22:20.580Z,5.65
2023-04-14T16:24:48.015Z,4.75
2023-04-14T16:27:15.782Z,4.65
2023-04-14T16:29:44.686Z,3.60
2023-04-14T16:32:12.223Z,5.80
2023-04-14T16:34:39.754Z,4.38
2023-04-14T16:37:07.214Z,5.13
2023-04-14T16:39:34.725Z,3.60
2023-04-14T16:42:03.067Z,3.40
2023-04-14T16:44:30.575Z,5.28
2023-04-14T16:46:59.430Z,4.55
2023-04-14T16:49:27.018Z,4.32
2023-04-14T16:51:56.979Z,5.53
2023-04-14T16:54:24.432Z,4.35
2023-04-14T16:56:52.802Z,6.70
2023-04-14T16:59:20.234Z,4.75
2023-04-14T17:01:47.935Z,2.60
2023-04-14T17:04:17.075Z,2.75
2023-04-14T17:06:44.928Z,2.70
2023-04-14T17:09:12.928Z,3.90
2023-04-14T17:11:40.548Z,3.70
2023-04-14T17:14:08.158Z,4.55
2023-04-14T17:16:35.884Z,5.10
2023-04-14T17:19:04.224Z,3.53
2023-04-14T17:21:33.241Z,4.22
2023-04-14T17:24:01.075Z,8.07
2023-04-14T17:26:29.114Z,7.20
2023-04-14T17:28:56.698Z,4.38
2023-04-14T17:31:24.289Z,6.72
2023-04-14T17:33:52.424Z,3.28
2023-04-14T17:36:20.159Z,5.22
2023-04-14T17:38:49.581Z,6.25
2023-04-14T17:41:17.146Z,3.17
2023-04-14T17:43:44.846Z,4.53
2023-04-14T17:46:12.620Z,3.47
2023-04-14T17:48:40.328Z,3.45
2023-04-14T17:51:07.917Z,4.85
2023-04-14T17:53:35.861Z,3.47
2023-04-14T17:56:05.836Z,3.95
2023-04-14T17:58:33.288Z,5.07
2023-04-14T18:01:00.856Z,4.50
2023-04-14T18:03:28.772Z,4.65
2023-04-14T18:05:56.472Z,5.65
2023-04-14T18:08:24.592Z,3.90
2023-04-14T18:10:52.039Z,4.78
2023-04-14T18:13:21.000Z,6.47
2023-04-14T18:15:50.431Z,5.05
2023-04-14T18:18:17.910Z,6.38
2023-04-14T18:20:45.946Z,7.35
2023-04-14T18:23:13.691Z,6.93
2023-04-14T18:28:12.124Z,6.63
2023-04-14T18:30:40.991Z,4.93
2023-04-14T18:33:08.782Z,6.25
2023-04-14T18:35:36.278Z,4.03
2023-04-14T18:38:03.863Z,5.22
2023-04-14T18:40:31.450Z,6.75
2023-04-14T18:42:58.987Z,10.45
2023-04-14T18:45:26.455Z,4.20
2023-04-14T18:47:55.723Z,4.65
2023-04-14T18:50:23.227Z,9.13
2023-04-14T18:52:50.815Z,4.30
2023-04-14T18:55:19.112Z,8.38
2023-04-14T18:57:46.953Z,6.43
2023-04-14T19:00:14.767Z,4.20
2023-04-14T19:02:42.634Z,5.20
2023-04-14T19:05:11.767Z,4.75
2023-04-14T19:07:39.245Z,4.55
2023-04-14T19:10:07.656Z,5.50
2023-04-14T19:12:35.187Z,4.00
2023-04-14T19:15:04.166Z,5.40
2023-04-14T19:17:33.989Z,5.65
2023-04-14T19:20:01.929Z,6.03
2023-04-14T19:22:30.779Z,5.47
2023-04-14T19:24:58.329Z,5.75
2023-04-14T19:27:26.272Z,6.00
2023-04-14T19:29:53.882Z,7.28
2023-04-14T19:32:21.397Z,3.83
2023-04-14T19:34:49.018Z,4.82
2023-04-14T19:37:16.486Z,4.13
2023-04-14T19:39:45.418Z,4.25
2023-04-14T19:42:13.177Z,5.43
2023-04-14T19:44:40.648Z,6.47
2023-04-14T19:47:08.365Z,8.23
2023-04-14T19:49:36.256Z,6.22
2023-04-14T19:52:04.638Z,6.53
2023-04-14T19:54:32.237Z,7.13
2023-04-14T19:57:01.718Z,5.45
2023-04-14T19:59:29.587Z,5.50
2023-04-14T20:01:57.063Z,4.72
2023-04-14T20:04:25.271Z,7.03
2023-04-14T20:06:53.223Z,7.15
2023-04-14T20:09:20.696Z,11.45
2023-04-14T20:11:48.193Z,13.35
2023-04-14T20:14:17.076Z,9.48
2023-04-14T20:16:44.656Z,13.07
2023-04-14T20:19:12.688Z,13.88
2023-04-14T20:21:40.552Z,9.25
2023-04-14T20:24:08.121Z,12.52
2023-04-14T20:26:38.180Z,9.30
2023-04-14T20:29:05.698Z,7.88
2023-04-14T20:31:34.540Z,7.78
2023-04-14T20:34:03.328Z,9.60
2023-04-14T20:36:35.769Z,7.25
2023-04-14T20:39:04.654Z,8.18
2023-04-14T20:41:32.344Z,5.55
2023-04-14T20:44:00.184Z,7.38
2023-04-14T20:46:27.749Z,6.30
2023-04-14T20:48:57.040Z,8.00
2023-04-14T20:51:25.122Z,7.22
2023-04-14T20:53:52.726Z,9.07
2023-04-14T20:56:20.201Z,6.35
2023-04-14T20:58:47.933Z,10.85
2023-04-14T21:01:15.545Z,7.95
2023-04-14T21:03:43.811Z,9.68
2023-04-14T21:06:12.776Z,9.70
2023-04-14T21:08:40.398Z,7.63
2023-04-14T21:11:16.511Z,7.03
2023-04-14T21:15:31.486Z,7.30
2023-04-14T21:16:33.239Z,5.60
2023-04-14T21:19:02.535Z,8.05
2023-04-14T21:21:32.925Z,6.90
2023-04-14T21:24:00.528Z,6.30
2023-04-14T21:26:28.418Z,7.45
2023-04-14T21:28:55.936Z,7.43
2023-04-14T21:31:23.456Z,7.55
2023-04-14T21:33:51.016Z,11.65
2023-04-14T21:36:19.485Z,8.38
2023-04-14T21:38:48.371Z,9.32
2023-04-14T21:41:15.881Z,7.47
2023-04-14T21:43:43.409Z,9.48
2023-04-14T21:46:10.927Z,7.10
2023-04-14T21:48:38.443Z,8.50
2023-04-14T21:51:06.179Z,6.13
2023-04-14T21:53:33.656Z,10.15
2023-04-14T21:56:09.773Z,8.00
2023-04-14T21:58:39.089Z,6.07
2023-04-14T22:01:06.990Z,6.78
2023-04-14T22:03:34.684Z,6.80
2023-04-14T22:06:02.641Z,6.95
2023-04-14T22:08:30.224Z,6.70
2023-04-14T22:10:57.817Z,6.70
2023-04-14T22:13:26.658Z,6.03
2023-04-14T22:15:54.971Z,3.97
2023-04-14T22:18:22.784Z,5.28
2023-04-14T22:20:50.342Z,3.92
2023-04-14T22:23:18.048Z,5.38
2023-04-14T22:25:46.013Z,4.82
2023-04-14T22:28:13.558Z,6.63
2023-04-14T22:30:42.352Z,6.72
2023-04-14T22:33:09.851Z,3.88
2023-04-14T22:35:37.307Z,4.72
2023-04-14T22:38:04.781Z,5.82
2023-04-14T22:40:32.322Z,4.75
2023-04-14T22:42:59.801Z,5.38
2023-04-14T22:45:27.255Z,4.90
2023-04-14T22:47:56.255Z,4.78
2023-04-14T22:50:24.419Z,5.60
2023-04-14T22:52:52.788Z,4.90
2023-04-14T22:55:20.237Z,6.53
2023-04-14T22:57:47.722Z,6.10
2023-04-14T23:00:16.173Z,6.18
2023-04-14T23:02:45.350Z,5.05
2023-04-14T23:05:14.891Z,6.30
2023-04-14T23:07:43.051Z,4.32
2023-04-14T23:10:11.613Z,4.82
2023-04-14T23:12:39.701Z,5.60
2023-04-14T23:15:09.246Z,5.18
2023-04-14T23:17:36.770Z,5.05
2023-04-14T23:20:04.553Z,5.40
2023-04-14T23:22:33.810Z,4.63
2023-04-14T23:25:01.300Z,6.70
2023-04-14T23:27:29.375Z,4.43
2023-04-14T23:29:57.202Z,5.13
2023-04-14T23:32:24.718Z,5.18
2023-04-14T23:34:52.285Z,4.40
2023-04-14T23:37:19.759Z,5.85
2023-04-14T23:39:48.568Z,4.05
2023-04-14T23:42:16.166Z,3.30
2023-04-14T23:44:43.633Z,4.28
2023-04-14T23:47:11.309Z,5.03
2023-04-14T23:49:38.871Z,5.65
2023-04-14T23:52:06.798Z,5.07
2023-04-14T23:54:34.286Z,3.20
2023-04-14T23:57:03.205Z,4.30
2023-04-14T23:59:31.087Z,3.55
